createdAt,value
2018-11-22T00:00:35.228Z,34.48
2018-11-22T00:03:23.575Z,33.45
2018-11-22T00:06:11.892Z,32.85
2018-11-22T00:09:00.201Z,35.58
2018-11-22T00:11:48.519Z,34.38
2018-11-22T00:14:36.861Z,33.33
2018-11-22T00:17:25.166Z,32.98
2018-11-22T00:20:13.785Z,33.00
2018-11-22T00:23:02.105Z,32.58
2018-11-22T00:25:50.660Z,31.62
2018-11-22T00:28:38.994Z,32.50
2018-11-22T00:31:27.305Z,30.87
2018-11-22T00:34:15.650Z,30.77
2018-11-22T00:37:03.998Z,32.63
2018-11-22T00:39:52.326Z,33.05
2018-11-22T00:42:41.090Z,33.53
2018-11-22T00:45:29.882Z,32.38
2018-11-22T00:48:18.466Z,33.63
2018-11-22T00:51:06.760Z,31.45
2018-11-22T00:53:55.096Z,32.42
2018-11-22T00:56:43.409Z,33.13
2018-11-22T00:59:31.751Z,33.70
2018-11-22T01:02:20.062Z,31.30
2018-11-22T01:05:08.618Z,32.88
2018-11-22T01:07:56.924Z,34.90
2018-11-22T01:10:45.233Z,34.13
2018-11-22T01:13:33.550Z,33.58
2018-11-22T01:16:21.874Z,34.63
2018-11-22T01:19:10.546Z,34.10
2018-11-22T01:21:58.848Z,36.05
2018-11-22T01:24:47.255Z,35.03
2018-11-22T01:27:35.579Z,35.40
2018-11-22T01:30:25.040Z,34.83
2018-11-22T01:33:13.353Z,36.05
2018-11-22T01:36:02.033Z,35.90
2018-11-22T01:38:50.357Z,35.27
2018-11-22T01:41:19.649Z,35.43
2018-11-22T01:44:08.030Z,36.35
2018-11-22T01:46:56.348Z,36.13
2018-11-22T01:49:45.569Z,36.58
2018-11-22T01:52:33.929Z,35.65
2018-11-22T01:55:23.222Z,35.30
2018-11-22T01:58:11.564Z,39.23
2018-11-22T02:01:00.178Z,36.48
2018-11-22T02:03:48.536Z,37.25
2018-11-22T02:06:37.152Z,37.42
2018-11-22T02:09:25.452Z,37.60
2018-11-22T02:12:13.804Z,37.15
2018-11-22T02:15:02.358Z,38.33
2018-11-22T02:17:50.664Z,39.35
2018-11-22T02:20:38.966Z,37.50
2018-11-22T02:23:27.283Z,37.85
2018-11-22T02:26:15.628Z,38.83
2018-11-22T02:29:03.971Z,35.80
2018-11-22T02:31:52.314Z,36.80
2018-11-22T02:34:40.638Z,35.23
2018-11-22T02:37:28.982Z,37.40
2018-11-22T02:40:18.754Z,36.30
2018-11-22T02:43:07.764Z,34.33
2018-11-22T02:45:56.099Z,37.80
2018-11-22T02:48:44.430Z,35.60
2018-11-22T02:51:32.764Z,39.18
2018-11-22T02:54:21.135Z,40.10
2018-11-22T02:57:09.477Z,36.17
2018-11-22T02:59:58.359Z,36.70
2018-11-22T03:02:46.690Z,37.00
2018-11-22T03:05:35.026Z,36.15
2018-11-22T03:08:23.410Z,35.48
2018-11-22T03:11:11.743Z,36.45
2018-11-22T03:14:00.071Z,36.10
2018-11-22T03:16:48.385Z,37.30
2018-11-22T03:19:36.949Z,34.95
2018-11-22T03:22:25.284Z,34.45
2018-11-22T03:25:14.995Z,34.33
2018-11-22T03:28:03.337Z,36.65
2018-11-22T03:30:51.678Z,35.38
2018-11-22T03:33:40.020Z,34.88
2018-11-22T03:36:28.941Z,34.23
2018-11-22T03:39:17.538Z,35.28
2018-11-22T03:42:05.880Z,33.53
2018-11-22T03:44:54.560Z,36.13
2018-11-22T03:47:43.295Z,34.98
2018-11-22T03:50:31.606Z,36.88
2018-11-22T03:53:20.167Z,35.88
2018-11-22T03:56:08.490Z,36.83
2018-11-22T03:58:56.800Z,37.40
2018-11-22T04:01:45.183Z,37.20
2018-11-22T04:04:33.503Z,38.60
2018-11-22T04:07:21.911Z,37.65
2018-11-22T04:10:11.474Z,41.53
2018-11-22T04:12:59.769Z,40.55
2018-11-22T04:15:48.085Z,40.78
2018-11-22T04:18:36.403Z,41.42
2018-11-22T04:21:24.749Z,43.13
2018-11-22T04:24:13.539Z,43.30
2018-11-22T04:27:01.880Z,41.77
2018-11-22T04:29:50.179Z,41.30
2018-11-22T04:32:38.499Z,44.67
2018-11-22T04:35:27.019Z,43.25
2018-11-22T04:38:15.624Z,42.53
2018-11-22T04:41:03.961Z,46.70
2018-11-22T04:43:52.329Z,43.28
2018-11-22T04:46:40.953Z,43.30
2018-11-22T04:49:29.298Z,44.18
2018-11-22T04:52:17.657Z,45.55
2018-11-22T04:55:06.336Z,45.85
2018-11-22T04:57:57.971Z,46.48
2018-11-22T05:00:42.998Z,43.78
2018-11-22T05:03:31.320Z,45.20
2018-11-22T05:06:19.677Z,44.58
2018-11-22T05:09:08.917Z,45.80
2018-11-22T05:11:57.257Z,44.18
2018-11-22T05:14:45.622Z,45.73
2018-11-22T05:17:34.285Z,43.92
2018-11-22T05:20:23.437Z,47.10
2018-11-22T05:23:11.779Z,50.12
2018-11-22T05:26:00.106Z,46.33
2018-11-22T05:28:48.441Z,49.15
2018-11-22T05:31:36.798Z,43.20
2018-11-22T05:34:25.396Z,46.23
2018-11-22T05:37:13.742Z,46.15
2018-11-22T05:40:02.318Z,48.80
2018-11-22T05:42:50.690Z,47.38
2018-11-22T05:45:39.268Z,45.85
2018-11-22T05:48:27.615Z,50.15
2018-11-22T05:51:16.151Z,47.05
2018-11-22T05:54:04.779Z,45.10
2018-11-22T05:56:53.374Z,51.33
2018-11-22T05:59:41.739Z,45.57
2018-11-22T06:02:30.236Z,48.50
2018-11-22T06:05:19.734Z,49.10
2018-11-22T06:08:08.066Z,46.25
2018-11-22T06:10:56.389Z,48.40
2018-11-22T06:13:44.713Z,48.68
2018-11-22T06:16:33.052Z,48.30
2018-11-22T06:19:21.398Z,48.73
2018-11-22T06:22:10.048Z,47.33
2018-11-22T06:25:03.614Z,45.23
2018-11-22T06:27:47.485Z,47.90
2018-11-22T06:30:36.117Z,48.98
2018-11-22T06:33:17.276Z,46.50
2018-11-22T06:35:58.187Z,47.10
2018-11-22T06:38:39.294Z,45.10
2018-11-22T06:41:20.351Z,45.60
2018-11-22T06:44:01.701Z,47.15
2018-11-22T06:46:42.954Z,47.50
2018-11-22T06:49:24.353Z,46.18
2018-11-22T06:52:04.992Z,47.40
2018-11-22T06:54:46.102Z,45.80
2018-11-22T06:57:27.364Z,47.90
2018-11-22T07:00:07.978Z,45.78
2018-11-22T07:02:49.972Z,46.80
2018-11-22T07:05:31.468Z,48.50
2018-11-22T07:08:12.730Z,49.48
2018-11-22T07:10:53.703Z,48.45
2018-11-22T07:13:34.293Z,45.15
2018-11-22T07:16:15.376Z,47.50
2018-11-22T07:18:56.449Z,47.88
2018-11-22T07:21:37.782Z,47.87
2018-11-22T07:24:18.963Z,50.35
2018-11-22T07:26:59.875Z,51.73
2018-11-22T07:29:41.264Z,50.23
2018-11-22T07:32:22.403Z,48.58
2018-11-22T07:35:03.544Z,52.07
2018-11-22T07:37:44.891Z,50.08
2018-11-22T07:40:21.050Z,48.85
2018-11-22T07:43:09.407Z,46.70
2018-11-22T07:45:57.760Z,50.12
2018-11-22T07:48:46.131Z,49.33
2018-11-22T07:51:34.501Z,49.42
2018-11-22T07:54:22.886Z,51.25
2018-11-22T07:57:11.210Z,53.75
2018-11-22T07:59:59.541Z,50.55
2018-11-22T08:02:48.674Z,49.98
2018-11-22T08:05:38.539Z,48.40
2018-11-22T08:08:26.875Z,53.83
2018-11-22T08:11:15.213Z,55.58
2018-11-22T08:14:03.541Z,55.28
2018-11-22T08:16:51.897Z,51.77
2018-11-22T08:19:40.229Z,52.15
2018-11-22T08:22:28.598Z,51.75
2018-11-22T08:25:18.340Z,48.30
2018-11-22T08:28:06.702Z,53.05
2018-11-22T08:30:55.038Z,54.33
2018-11-22T08:33:43.376Z,51.10
2018-11-22T08:36:31.703Z,54.58
2018-11-22T08:39:20.107Z,48.33
2018-11-22T08:42:08.438Z,48.65
2018-11-22T08:44:56.789Z,48.25
2018-11-22T08:47:45.220Z,49.18
2018-11-22T08:50:33.649Z,54.13
2018-11-22T08:53:21.988Z,51.55
2018-11-22T08:56:10.869Z,50.12
2018-11-22T08:58:59.179Z,56.95
2018-11-22T09:01:47.837Z,49.75
2018-11-22T09:04:36.221Z,52.48
2018-11-22T09:07:24.854Z,48.10
2018-11-22T09:10:14.168Z,51.53
2018-11-22T09:13:03.433Z,50.58
2018-11-22T09:15:51.765Z,52.83
2018-11-22T09:18:40.094Z,48.48
2018-11-22T09:21:28.733Z,53.73
2018-11-22T09:24:17.494Z,49.58
2018-11-22T09:27:05.690Z,50.65
2018-11-22T09:29:54.564Z,48.23
2018-11-22T09:32:43.594Z,50.30
2018-11-22T09:35:33.312Z,50.58
2018-11-22T09:38:02.549Z,50.53
2018-11-22T09:40:50.880Z,50.52
2018-11-22T09:43:39.201Z,52.15
2018-11-22T09:46:27.550Z,51.35
2018-11-22T09:49:15.903Z,48.28
2018-11-22T09:52:04.233Z,49.58
2018-11-22T09:54:52.566Z,50.90
2018-11-22T09:57:41.218Z,49.38
2018-11-22T10:00:29.553Z,49.83
2018-11-22T10:03:17.938Z,47.67
2018-11-22T10:06:06.715Z,52.17
2018-11-22T10:08:55.314Z,52.48
2018-11-22T10:11:43.664Z,46.28
2018-11-22T10:14:32.028Z,49.17
2018-11-22T10:17:20.372Z,49.27
2018-11-22T10:20:10.141Z,47.67
2018-11-22T10:22:59.184Z,50.95
2018-11-22T10:25:47.539Z,52.40
2018-11-22T10:28:35.895Z,50.88
2018-11-22T10:31:24.637Z,48.65
2018-11-22T10:34:13.177Z,48.90
2018-11-22T10:37:01.513Z,53.98
2018-11-22T10:39:49.861Z,47.05
2018-11-22T10:42:38.302Z,54.88
2018-11-22T10:45:45.379Z,52.55
2018-11-22T10:48:33.725Z,50.70
2018-11-22T10:51:22.352Z,49.88
2018-11-22T10:54:10.681Z,47.13
2018-11-22T10:56:59.009Z,49.60
2018-11-22T10:59:47.368Z,46.30
2018-11-22T11:02:54.500Z,45.80
2018-11-22T11:06:01.668Z,50.43
2018-11-22T11:08:50.026Z,49.05
2018-11-22T11:11:38.366Z,46.55
2018-11-22T11:14:26.979Z,47.38
2018-11-22T11:17:15.661Z,44.95
2018-11-22T11:20:04.320Z,47.33
2018-11-22T11:22:52.585Z,45.57
2018-11-22T11:25:40.991Z,46.58
2018-11-22T11:28:29.568Z,44.38
2018-11-22T11:31:17.892Z,50.23
2018-11-22T11:34:06.223Z,49.20
2018-11-22T11:36:54.814Z,49.73
2018-11-22T11:39:24.141Z,49.03
2018-11-22T11:42:12.471Z,48.83
2018-11-22T11:45:03.395Z,48.55
2018-11-22T11:47:51.740Z,51.23
2018-11-22T11:50:40.344Z,50.90
2018-11-22T11:53:41.048Z,52.45
2018-11-22T11:56:17.004Z,51.48
2018-11-22T11:59:05.822Z,51.92
2018-11-22T12:01:54.149Z,54.20
2018-11-22T12:04:42.529Z,53.30
2018-11-22T12:07:30.860Z,50.98
2018-11-22T12:10:20.446Z,50.20
2018-11-22T12:13:08.947Z,53.60
2018-11-22T12:15:57.281Z,53.83
2018-11-22T12:18:45.625Z,50.98
2018-11-22T12:21:34.015Z,53.50
2018-11-22T12:24:22.285Z,49.80
2018-11-22T12:27:10.613Z,49.73
2018-11-22T12:29:59.229Z,50.52
2018-11-22T12:33:06.365Z,54.55
2018-11-22T12:36:13.548Z,52.08
2018-11-22T12:39:01.831Z,56.08
2018-11-22T12:41:50.495Z,59.75
2018-11-22T12:44:39.282Z,53.25
2018-11-22T12:47:27.869Z,53.97
2018-11-22T12:50:16.208Z,55.67
2018-11-22T12:53:04.542Z,52.00
2018-11-22T12:55:52.913Z,47.67
2018-11-22T12:58:41.244Z,49.60
2018-11-22T13:01:29.565Z,53.68
2018-11-22T13:04:17.870Z,55.52
2018-11-22T13:07:06.225Z,57.00
2018-11-22T13:09:54.540Z,56.00
2018-11-22T13:12:44.129Z,54.98
2018-11-22T13:15:32.507Z,54.13
2018-11-22T13:18:20.870Z,50.15
2018-11-22T13:21:09.432Z,53.58
2018-11-22T13:23:57.810Z,57.05
2018-11-22T13:26:46.279Z,55.12
2018-11-22T13:29:34.967Z,51.60
2018-11-22T13:32:23.362Z,51.48
2018-11-22T13:35:12.454Z,52.43
2018-11-22T13:38:00.770Z,48.50
2018-11-22T13:40:49.084Z,50.90
2018-11-22T13:43:37.437Z,51.02
2018-11-22T13:46:25.812Z,49.03
2018-11-22T13:49:14.135Z,52.38
2018-11-22T13:52:02.683Z,52.58
2018-11-22T13:54:51.226Z,50.05
2018-11-22T14:00:34.630Z,52.60
2018-11-22T14:03:23.247Z,53.70
2018-11-22T14:06:11.849Z,54.18
2018-11-22T14:09:00.188Z,54.75
2018-11-22T14:11:48.767Z,56.90
2018-11-22T14:14:37.343Z,55.25
2018-11-22T14:17:25.671Z,51.93
2018-11-22T14:20:15.371Z,52.58
2018-11-22T14:23:03.720Z,53.15
2018-11-22T14:25:32.966Z,58.25
2018-11-22T14:28:21.304Z,58.70
2018-11-22T14:31:09.891Z,49.65
2018-11-22T14:33:58.229Z,52.00
2018-11-22T14:36:46.605Z,55.67
2018-11-22T14:39:35.193Z,52.20
2018-11-22T14:42:23.520Z,53.10
2018-11-22T14:45:13.022Z,53.60
2018-11-22T14:48:02.599Z,55.25
2018-11-22T14:51:09.982Z,55.30
2018-11-22T14:53:58.339Z,54.50
2018-11-22T14:56:46.681Z,56.35
2018-11-22T14:59:35.065Z,56.20
2018-11-22T15:02:23.670Z,54.63
2018-11-22T15:05:12.653Z,57.58
2018-11-22T15:08:00.970Z,59.35
2018-11-22T15:10:49.604Z,54.05
2018-11-22T15:13:37.919Z,64.57
2018-11-22T15:16:26.276Z,55.85
2018-11-22T15:19:14.592Z,55.08
2018-11-22T15:22:02.970Z,60.60
2018-11-22T15:24:51.555Z,52.70
2018-11-22T15:27:40.131Z,52.67
2018-11-22T15:30:29.596Z,59.73
2018-11-22T15:33:17.855Z,55.35
2018-11-22T15:36:06.249Z,56.53
2018-11-22T15:38:54.608Z,56.03
2018-11-22T15:41:43.325Z,57.70
2018-11-22T15:44:31.891Z,57.95
2018-11-22T15:47:20.256Z,54.20
2018-11-22T15:50:09.650Z,59.53
2018-11-22T15:52:58.071Z,58.75
2018-11-22T15:55:46.412Z,57.93
2018-11-22T15:58:35.115Z,56.05
2018-11-22T16:01:23.443Z,55.67
2018-11-22T16:04:11.778Z,58.35
2018-11-22T16:07:00.121Z,59.65
2018-11-22T16:09:48.448Z,57.93
2018-11-22T16:12:36.788Z,58.02
2018-11-22T16:15:45.771Z,55.78
2018-11-22T16:18:34.135Z,56.58
2018-11-22T16:21:22.474Z,59.80
2018-11-22T16:24:10.822Z,56.83
2018-11-22T16:26:59.231Z,53.23
2018-11-22T16:29:47.819Z,52.40
2018-11-22T16:32:36.152Z,55.83
2018-11-22T16:35:32.803Z,53.17
2018-11-22T16:38:14.106Z,57.95
2018-11-22T16:41:02.480Z,60.95
2018-11-22T16:43:50.840Z,57.48
2018-11-22T16:46:39.202Z,59.20
2018-11-22T16:49:27.548Z,58.65
2018-11-22T16:52:15.886Z,61.92
2018-11-22T16:55:04.231Z,59.70
2018-11-22T16:57:53.619Z,60.33
2018-11-22T17:03:36.000Z,59.03
2018-11-22T17:06:24.329Z,60.45
2018-11-22T17:09:12.673Z,59.00
2018-11-22T17:11:53.933Z,61.95
2018-11-22T17:14:34.749Z,57.95
2018-11-22T17:17:15.472Z,60.33
2018-11-22T17:19:56.686Z,62.00
2018-11-22T17:22:37.516Z,60.87
2018-11-22T17:25:22.743Z,59.63
2018-11-22T17:28:05.358Z,60.35
2018-11-22T17:30:46.354Z,58.95
2018-11-22T17:33:27.586Z,57.40
2018-11-22T17:36:08.673Z,57.20
2018-11-22T17:38:49.637Z,57.53
2018-11-22T17:41:31.123Z,59.67
2018-11-22T17:44:11.955Z,59.48
2018-11-22T17:46:52.669Z,57.00
2018-11-22T17:49:33.443Z,59.83
2018-11-22T17:52:14.528Z,58.52
2018-11-22T17:54:56.525Z,55.03
2018-11-22T17:57:37.561Z,56.20
2018-11-22T18:00:19.784Z,56.15
2018-11-22T18:03:02.141Z,55.25
2018-11-22T18:05:43.094Z,55.92
2018-11-22T18:08:24.204Z,56.18
2018-11-22T18:11:04.729Z,57.87
2018-11-22T18:13:45.920Z,60.60
2018-11-22T18:16:25.427Z,57.17
2018-11-22T18:19:13.797Z,54.07
2018-11-22T18:22:02.768Z,56.28
2018-11-22T18:24:32.739Z,52.93
2018-11-22T18:27:21.246Z,55.40
2018-11-22T18:30:14.821Z,59.05
2018-11-22T18:33:04.398Z,57.03
2018-11-22T18:35:52.764Z,55.70
2018-11-22T18:38:41.149Z,59.45
2018-11-22T18:41:29.692Z,58.00
2018-11-22T18:44:18.041Z,54.93
2018-11-22T18:47:06.412Z,58.13
2018-11-22T18:49:54.737Z,57.33
2018-11-22T18:52:43.505Z,54.77
2018-11-22T18:55:32.116Z,54.83
2018-11-22T18:58:20.685Z,55.80
2018-11-22T19:01:09.040Z,55.00
2018-11-22T19:07:05.597Z,57.23
2018-11-22T19:09:53.933Z,57.93
2018-11-22T19:12:43.018Z,57.20
2018-11-22T19:15:33.196Z,59.85
2018-11-22T19:18:21.521Z,56.13
2018-11-22T19:21:09.886Z,57.30
2018-11-22T19:23:58.306Z,55.58
2018-11-22T19:26:46.957Z,54.60
2018-11-22T19:29:35.265Z,56.35
2018-11-22T19:32:23.594Z,60.70
2018-11-22T19:38:20.392Z,62.38
2018-11-22T19:41:08.693Z,60.75
2018-11-22T19:43:57.317Z,61.25
2018-11-22T19:46:45.647Z,59.37
2018-11-22T19:49:33.977Z,57.33
2018-11-22T19:52:22.735Z,56.25
2018-11-22T19:55:12.834Z,61.50
2018-11-22T19:58:02.675Z,64.53
2018-11-22T20:00:50.993Z,60.65
2018-11-22T20:03:39.372Z,59.18
2018-11-22T20:06:27.956Z,59.83
2018-11-22T20:09:18.821Z,58.52
2018-11-22T20:12:07.162Z,64.70
2018-11-22T20:15:03.038Z,61.13
2018-11-22T20:17:52.087Z,59.98
2018-11-22T20:20:40.423Z,58.90
2018-11-22T20:23:28.763Z,58.00
2018-11-22T20:25:58.268Z,58.70
2018-11-22T20:28:46.635Z,58.20
2018-11-22T20:31:34.984Z,59.15
2018-11-22T20:34:23.398Z,62.30
2018-11-22T20:37:11.733Z,60.75
2018-11-22T20:40:00.124Z,60.48
2018-11-22T20:42:48.457Z,62.27
2018-11-22T20:45:40.918Z,60.00
2018-11-22T20:51:19.540Z,62.62
2018-11-22T20:54:07.966Z,60.03
2018-11-22T20:56:56.303Z,58.50
2018-11-22T20:59:44.675Z,62.15
2018-11-22T21:02:33.033Z,64.92
2018-11-22T21:05:23.019Z,60.20
2018-11-22T21:08:11.330Z,61.83
2018-11-22T21:10:59.914Z,67.47
2018-11-22T21:13:48.285Z,64.25
2018-11-22T21:16:36.609Z,68.10
2018-11-22T21:19:25.488Z,64.17
2018-11-22T21:22:13.866Z,68.50
2018-11-22T21:25:02.197Z,62.15
2018-11-22T21:27:50.528Z,65.40
2018-11-22T21:30:39.945Z,68.62
2018-11-22T21:33:28.282Z,64.00
2018-11-22T21:36:16.910Z,65.42
2018-11-22T21:39:07.142Z,64.92
2018-11-22T21:41:55.732Z,63.95
2018-11-22T21:44:44.262Z,63.13
2018-11-22T21:47:33.332Z,68.35
2018-11-22T21:50:23.018Z,68.47
2018-11-22T21:53:11.369Z,67.05
2018-11-22T21:55:59.709Z,64.10
2018-11-22T21:58:48.041Z,68.02
2018-11-22T22:01:36.600Z,64.70
2018-11-22T22:04:24.907Z,67.20
2018-11-22T22:07:13.244Z,69.20
2018-11-22T22:10:01.576Z,64.42
2018-11-22T22:12:49.932Z,64.17
2018-11-22T22:15:38.768Z,63.33
2018-11-22T22:18:27.087Z,69.67
2018-11-22T22:21:34.714Z,64.50
2018-11-22T22:24:03.972Z,70.30
2018-11-22T22:26:52.299Z,67.25
2018-11-22T22:29:40.607Z,68.90
2018-11-22T22:32:28.960Z,65.30
2018-11-22T22:35:17.294Z,68.50
2018-11-22T22:38:05.655Z,73.20
2018-11-22T22:40:53.988Z,69.65
2018-11-22T22:43:42.335Z,66.25
2018-11-22T22:46:30.669Z,72.00
2018-11-22T22:49:19.001Z,69.62
2018-11-22T22:52:07.355Z,66.02
2018-11-22T22:54:55.677Z,72.58
2018-11-22T22:57:44.364Z,69.92
2018-11-22T23:00:51.500Z,71.37
2018-11-22T23:03:39.841Z,71.72
2018-11-22T23:06:28.173Z,73.00
2018-11-22T23:09:16.492Z,71.12
2018-11-22T23:12:04.840Z,68.60
2018-11-22T23:14:53.162Z,66.95
2018-11-22T23:17:41.960Z,69.25
2018-11-22T23:20:34.348Z,73.97
2018-11-22T23:23:22.695Z,77.92
2018-11-22T23:26:11.321Z,71.15
2018-11-22T23:28:59.628Z,76.77
2018-11-22T23:31:47.955Z,70.00
2018-11-22T23:34:36.337Z,78.75
2018-11-22T23:37:05.720Z,75.70
2018-11-22T23:39:54.049Z,73.87
2018-11-22T23:42:42.725Z,78.47
2018-11-22T23:45:32.095Z,77.10
2018-11-22T23:48:20.715Z,75.60
2018-11-22T23:51:09.025Z,81.82
2018-11-22T23:53:57.708Z,75.90
2018-11-22T23:56:46.035Z,73.67
2018-11-22T23:59:34.607Z,75.57
